Time;durP1;ratioP1;P1;durP2;ratioP2;P2;SDS_P1;SDS_P2;PMS_P1;PMS_P2;Temp;Humidity;BMP_temperature;BMP_pressure;BME280_temperature;BME280_humidity;BME280_pressure;Samples;Min_cycle;Max_cycle;Signal;HPM_P1;HPM_P2
2021/07/09 00:02:04;;;;;;;13.88;11.63;;;18.20;99.90;;;;;;5042519;28;20045;-71
2021/07/09 00:04:33;;;;;;;15.80;12.85;;;18.20;99.90;;;;;;5044171;28;20159;-70
2021/07/09 00:07:00;;;;;;;15.07;13.45;;;18.20;99.90;;;;;;5050687;28;20528;-70
2021/07/09 00:09:29;;;;;;;13.27;11.88;;;18.10;99.90;;;;;;5051775;28;20045;-70
2021/07/09 00:11:57;;;;;;;18.13;14.10;;;18.10;99.90;;;;;;5046837;28;20041;-70
2021/07/09 00:14:27;;;;;;;17.48;14.18;;;18.10;99.90;;;;;;5047500;28;20044;-70
2021/07/09 00:16:55;;;;;;;16.38;14.20;;;18.10;99.90;;;;;;5038019;28;20061;-70
2021/07/09 00:19:23;;;;;;;14.60;11.10;;;18.10;99.90;;;;;;5040805;28;20071;-70
2021/07/09 00:21:50;;;;;;;12.82;10.38;;;18.00;99.90;;;;;;5033775;28;20048;-70
2021/07/09 00:24:18;;;;;;;13.70;11.20;;;18.00;99.90;;;;;;5042657;28;20120;-70
2021/07/09 00:26:46;;;;;;;19.67;10.43;;;18.00;99.90;;;;;;5036712;28;20052;-70
2021/07/09 00:29:13;;;;;;;15.38;10.00;;;18.00;99.90;;;;;;5032101;28;20041;-70
2021/07/09 00:31:41;;;;;;;8.27;7.03;;;17.90;99.90;;;;;;5031227;28;20583;-70
2021/07/09 00:34:08;;;;;;;9.30;6.80;;;17.80;99.90;;;;;;5011191;28;20045;-68
2021/07/09 00:36:37;;;;;;;11.20;6.78;;;17.70;99.90;;;;;;5031541;28;20049;-70
2021/07/09 00:39:07;;;;;;;8.35;6.22;;;17.60;99.90;;;;;;5030609;28;20056;-69
2021/07/09 00:41:36;;;;;;;7.35;5.95;;;17.60;99.90;;;;;;5035991;28;20126;-70
2021/07/09 00:44:06;;;;;;;9.20;6.03;;;17.50;99.90;;;;;;5035080;28;20500;-70
2021/07/09 00:46:39;;;;;;;10.68;6.22;;;17.50;99.90;;;;;;5031281;28;20064;-70
2021/07/09 00:49:08;;;;;;;7.85;6.00;;;17.40;99.90;;;;;;5030380;28;20120;-70
2021/07/09 00:51:36;;;;;;;7.47;5.75;;;17.30;99.90;;;;;;5047953;28;20040;-70
2021/07/09 00:54:04;;;;;;;6.60;5.10;;;17.30;99.90;;;;;;5045822;28;20037;-70
2021/07/09 00:56:34;;;;;;;7.82;5.50;;;17.30;99.90;;;;;;5048078;28;20140;-69
2021/07/09 00:59:03;;;;;;;6.47;5.75;;;17.30;99.90;;;;;;5046512;28;20041;-69
2021/07/09 01:01:31;;;;;;;8.18;5.93;;;17.20;99.90;;;;;;5032688;28;20548;-69
2021/07/09 01:03:59;;;;;;;7.85;6.40;;;17.20;99.90;;;;;;5045699;28;20037;-70
2021/07/09 01:06:26;;;;;;;7.88;6.78;;;17.10;99.90;;;;;;5044848;28;20080;-70
2021/07/09 01:08:53;;;;;;;11.48;7.05;;;17.10;99.90;;;;;;5046367;28;20059;-70
2021/07/09 01:11:22;;;;;;;10.95;7.10;;;17.10;99.90;;;;;;5049654;28;20059;-70
2021/07/09 01:13:50;;;;;;;7.90;6.80;;;17.10;99.90;;;;;;5046180;28;20055;-70
2021/07/09 01:16:17;;;;;;;7.32;5.82;;;17.10;99.90;;;;;;5046740;28;20048;-70
2021/07/09 01:18:45;;;;;;;6.35;5.28;;;17.10;99.90;;;;;;5043110;28;20048;-70
2021/07/09 01:21:12;;;;;;;8.68;7.18;;;17.20;99.90;;;;;;5045795;28;20037;-70
2021/07/09 01:23:41;;;;;;;8.55;6.50;;;17.20;99.90;;;;;;5046375;28;20064;-70
2021/07/09 01:26:09;;;;;;;9.63;7.50;;;17.20;99.90;;;;;;5039423;28;20125;-70
2021/07/09 01:28:38;;;;;;;13.82;7.78;;;17.10;99.90;;;;;;5052310;28;20075;-70
2021/07/09 01:31:07;;;;;;;9.25;8.18;;;17.10;99.90;;;;;;5052335;28;20076;-70
2021/07/09 01:33:35;;;;;;;8.25;7.45;;;17.10;99.90;;;;;;5049978;28;20067;-70
2021/07/09 01:36:03;;;;;;;12.43;7.80;;;17.00;99.90;;;;;;5044046;28;20445;-70
2021/07/09 01:38:30;;;;;;;10.15;7.53;;;17.00;99.90;;;;;;5052502;28;20500;-70
2021/07/09 01:40:58;;;;;;;8.77;7.47;;;16.90;99.90;;;;;;5050601;28;20049;-69
2021/07/09 01:43:26;;;;;;;8.82;6.82;;;16.90;99.90;;;;;;5052039;28;20056;-70
2021/07/09 01:45:54;;;;;;;12.02;7.45;;;16.90;99.90;;;;;;5049149;28;20132;-70
2021/07/09 01:48:22;;;;;;;11.10;6.95;;;16.80;99.90;;;;;;5045244;28;20053;-70
2021/07/09 01:50:49;;;;;;;8.85;7.15;;;16.80;99.90;;;;;;5022453;28;20116;-69
2021/07/09 01:53:17;;;;;;;9.98;7.13;;;16.80;99.90;;;;;;5037436;28;20067;-70
2021/07/09 01:55:45;;;;;;;10.30;7.80;;;16.70;99.90;;;;;;5038632;28;20033;-70
2021/07/09 01:58:13;;;;;;;9.77;7.70;;;16.60;99.90;;;;;;5048395;28;20124;-68
2021/07/09 02:00:41;;;;;;;10.07;7.38;;;16.60;99.90;;;;;;5054157;28;20037;-71
2021/07/09 02:03:10;;;;;;;10.30;7.53;;;16.60;99.90;;;;;;5038385;28;20056;-71
2021/07/09 02:05:38;;;;;;;9.93;8.38;;;16.60;99.90;;;;;;5052448;28;20044;-71
2021/07/09 02:08:06;;;;;;;9.18;7.43;;;16.50;99.90;;;;;;5051360;28;20159;-68
2021/07/09 02:10:37;;;;;;;10.68;7.30;;;16.60;99.90;;;;;;5054011;28;20043;-71
2021/07/09 02:13:04;;;;;;;12.80;8.25;;;16.60;99.90;;;;;;5047170;28;20041;-70
2021/07/09 02:15:39;;;;;;;9.07;7.18;;;16.50;99.90;;;;;;5049109;28;20076;-68
2021/07/09 02:18:07;;;;;;;8.10;7.13;;;16.50;99.90;;;;;;5050123;28;20064;-71
2021/07/09 02:20:35;;;;;;;14.38;7.72;;;16.50;99.90;;;;;;5053645;28;20061;-67
2021/07/09 02:23:05;;;;;;;8.85;7.38;;;16.50;99.90;;;;;;5051674;28;20049;-71
2021/07/09 02:25:33;;;;;;;12.43;7.53;;;16.50;99.90;;;;;;5046113;28;20139;-68
2021/07/09 02:28:01;;;;;;;9.85;7.05;;;16.50;99.90;;;;;;5047828;28;20431;-69
2021/07/09 02:30:29;;;;;;;10.10;7.32;;;16.50;99.90;;;;;;5047888;28;20041;-69
2021/07/09 02:32:57;;;;;;;10.68;7.55;;;16.50;99.90;;;;;;5049455;28;20033;-68
2021/07/09 02:35:31;;;;;;;9.57;7.22;;;16.50;99.90;;;;;;5040609;28;20056;-69
2021/07/09 02:37:58;;;;;;;10.25;8.15;;;16.40;99.90;;;;;;5051761;28;20116;-69
2021/07/09 02:40:28;;;;;;;8.35;7.07;;;16.40;99.90;;;;;;5053096;28;20075;-69
2021/07/09 02:42:57;;;;;;;10.23;7.57;;;16.40;99.90;;;;;;5030239;28;20049;-69
2021/07/09 02:45:25;;;;;;;12.85;8.07;;;16.40;99.90;;;;;;5039758;28;20103;-69
2021/07/09 02:48:13;;;;;;;7.30;6.35;;;16.40;99.90;;;;;;5047557;28;20053;-69
2021/07/09 02:50:40;;;;;;;9.55;6.90;;;16.50;99.90;;;;;;5051525;28;20049;-70
2021/07/09 02:53:08;;;;;;;13.60;7.63;;;16.50;99.90;;;;;;5049419;28;20041;-69
2021/07/09 02:55:35;;;;;;;9.90;7.97;;;16.50;99.90;;;;;;5044263;28;20508;-69
2021/07/09 02:58:02;;;;;;;10.02;7.80;;;16.50;99.90;;;;;;5046312;28;20045;-70
2021/07/09 03:00:30;;;;;;;9.32;6.45;;;16.50;99.90;;;;;;5051077;28;20080;-70
2021/07/09 03:02:57;;;;;;;7.95;6.93;;;16.40;99.90;;;;;;5039038;28;20065;-69
2021/07/09 03:05:24;;;;;;;8.48;7.57;;;16.50;99.90;;;;;;5051936;28;20089;-69
2021/07/09 03:07:51;;;;;;;9.18;7.75;;;16.50;99.90;;;;;;5050531;28;20051;-69
2021/07/09 03:10:18;;;;;;;9.43;8.35;;;16.50;99.90;;;;;;5050548;28;20403;-69
2021/07/09 03:12:46;;;;;;;10.30;8.25;;;16.50;99.90;;;;;;5049751;28;20557;-69
2021/07/09 03:15:14;;;;;;;9.43;8.50;;;16.50;99.90;;;;;;5047726;28;20049;-69
2021/07/09 03:17:41;;;;;;;12.73;7.97;;;16.50;99.90;;;;;;5050853;28;20136;-69
2021/07/09 03:20:10;;;;;;;10.45;8.43;;;16.50;99.90;;;;;;5050727;28;20048;-69
2021/07/09 03:22:39;;;;;;;10.13;9.07;;;16.50;99.90;;;;;;5049712;28;20045;-69
2021/07/09 03:25:08;;;;;;;9.18;7.38;;;16.50;99.90;;;;;;5032648;28;20090;-69
2021/07/09 03:27:36;;;;;;;9.40;8.35;;;16.50;99.90;;;;;;5050974;28;20041;-69
2021/07/09 03:30:08;;;;;;;11.10;8.98;;;16.60;99.90;;;;;;5051590;28;20049;-70
2021/07/09 03:32:35;;;;;;;;;;;16.70;99.90;;;;;;5049370;28;20041;-71
2021/07/09 03:35:05;;;;;;;10.48;9.35;;;16.70;99.90;;;;;;5038308;28;19925;-70
2021/07/09 03:37:33;;;;;;;10.25;8.90;;;16.70;99.90;;;;;;5029294;28;20068;-70
2021/07/09 03:40:00;;;;;;;9.45;8.40;;;16.70;99.90;;;;;;5029033;28;20076;-70
2021/07/09 03:42:27;;;;;;;10.38;8.73;;;16.70;99.90;;;;;;5045663;28;20045;-70
2021/07/09 03:44:54;;;;;;;11.65;9.27;;;16.70;99.90;;;;;;5049108;28;20049;-70
2021/07/09 03:47:22;;;;;;;12.57;11.23;;;16.70;99.90;;;;;;5051732;28;20053;-70
2021/07/09 03:49:49;;;;;;;11.40;9.35;;;16.80;99.90;;;;;;5050913;28;20159;-70
2021/07/09 03:52:16;;;;;;;9.90;8.88;;;16.80;99.90;;;;;;5030688;28;20060;-70
2021/07/09 03:54:44;;;;;;;11.13;10.02;;;16.90;99.90;;;;;;5045642;28;20141;-70
2021/07/09 03:57:11;;;;;;;12.98;10.57;;;16.90;99.90;;;;;;5051667;28;20053;-70
2021/07/09 03:59:38;;;;;;;15.70;11.50;;;17.00;99.90;;;;;;5051419;28;20037;-70
2021/07/09 04:02:06;;;;;;;11.80;9.55;;;17.00;99.90;;;;;;5045544;28;20395;-70
2021/07/09 04:04:33;;;;;;;12.80;9.35;;;17.10;99.90;;;;;;5035755;28;20479;-70
2021/07/09 04:07:00;;;;;;;11.27;10.07;;;17.10;99.90;;;;;;5036788;28;20044;-70
2021/07/09 04:09:28;;;;;;;10.77;9.23;;;17.20;99.90;;;;;;5047965;28;20114;-70
2021/07/09 04:11:55;;;;;;;11.13;8.48;;;17.30;99.90;;;;;;5030541;28;20057;-70
2021/07/09 04:14:23;;;;;;;10.60;9.43;;;17.40;99.90;;;;;;5049854;28;20123;-70
2021/07/09 04:16:50;;;;;;;11.63;9.00;;;17.50;99.90;;;;;;5051138;28;20538;-70
2021/07/09 04:19:17;;;;;;;11.48;8.98;;;17.60;99.90;;;;;;5045574;28;20619;-70
2021/07/09 04:21:45;;;;;;;9.85;8.52;;;17.70;99.90;;;;;;5045246;28;20048;-70
2021/07/09 04:24:13;;;;;;;10.25;8.30;;;17.80;99.90;;;;;;5049621;28;20156;-70
2021/07/09 04:26:41;;;;;;;11.45;7.35;;;17.80;99.90;;;;;;5051055;28;20041;-70
2021/07/09 04:29:08;;;;;;;11.27;7.95;;;17.80;99.90;;;;;;5049940;28;20063;-70
2021/07/09 04:31:36;;;;;;;8.13;6.57;;;17.90;99.90;;;;;;5051391;28;20051;-70
2021/07/09 04:34:03;;;;;;;9.02;7.22;;;17.90;99.90;;;;;;5045095;28;20599;-70
2021/07/09 04:36:30;;;;;;;9.35;7.00;;;18.00;99.90;;;;;;5035279;28;20064;-70
2021/07/09 04:38:58;;;;;;;12.10;9.75;;;18.00;99.90;;;;;;5042434;28;20033;-70
2021/07/09 04:41:25;;;;;;;11.30;6.72;;;18.10;99.90;;;;;;5039914;28;20049;-70
2021/07/09 04:43:52;;;;;;;9.90;8.00;;;18.10;99.90;;;;;;5047296;28;20040;-71
2021/07/09 04:46:20;;;;;;;10.93;9.10;;;18.20;99.90;;;;;;5034169;28;20395;-70
2021/07/09 04:48:47;;;;;;;9.85;7.28;;;18.20;99.90;;;;;;5024601;28;20042;-70
2021/07/09 04:51:14;;;;;;;10.60;8.27;;;18.20;99.90;;;;;;5044571;28;20044;-70
2021/07/09 04:53:42;;;;;;;9.27;8.05;;;18.20;99.90;;;;;;5037466;28;20102;-70
2021/07/09 04:56:09;;;;;;;10.75;8.43;;;18.30;99.90;;;;;;5051086;28;20096;-70
2021/07/09 04:58:36;;;;;;;11.18;9.27;;;18.30;99.90;;;;;;5046826;28;20112;-70
2021/07/09 05:01:03;;;;;;;12.07;8.80;;;18.30;99.90;;;;;;5040650;28;20565;-71
2021/07/09 05:03:31;;;;;;;8.38;7.03;;;18.20;99.90;;;;;;5042922;28;20052;-70
2021/07/09 05:05:58;;;;;;;12.25;8.10;;;18.20;99.90;;;;;;5048435;28;20037;-70
2021/07/09 05:08:25;;;;;;;8.85;7.60;;;18.30;99.90;;;;;;5053173;28;20047;-71
2021/07/09 05:10:53;;;;;;;8.40;7.10;;;18.20;99.90;;;;;;5051712;28;20079;-71
2021/07/09 05:13:20;;;;;;;8.50;7.03;;;18.30;99.90;;;;;;5052451;28;20107;-71
2021/07/09 05:15:48;;;;;;;8.88;7.78;;;18.20;99.90;;;;;;5049963;28;20540;-71
2021/07/09 05:18:15;;;;;;;9.57;8.55;;;18.20;99.90;;;;;;5047933;28;20144;-71
2021/07/09 05:20:42;;;;;;;9.60;8.43;;;18.20;99.90;;;;;;5055529;28;20795;-71
2021/07/09 05:23:10;;;;;;;11.57;9.02;;;18.20;99.90;;;;;;5051119;28;20151;-72
2021/07/09 05:25:37;;;;;;;11.00;9.25;;;18.10;99.90;;;;;;5053294;28;20060;-72
2021/07/09 05:28:06;;;;;;;9.02;7.68;;;18.10;99.90;;;;;;5050310;28;20148;-72
2021/07/09 05:30:33;;;;;;;13.95;9.65;;;18.10;99.90;;;;;;5048810;28;20457;-71
2021/07/09 05:33:01;;;;;;;12.43;10.80;;;18.00;99.90;;;;;;5035581;28;20511;-72
2021/07/09 05:35:29;;;;;;;9.25;7.78;;;18.00;99.90;;;;;;5043251;28;20091;-71
2021/07/09 05:37:56;;;;;;;12.20;10.45;;;17.90;99.90;;;;;;5048870;28;20112;-71
2021/07/09 05:40:23;;;;;;;10.25;8.70;;;17.90;99.90;;;;;;5050573;28;20116;-71
2021/07/09 05:42:52;;;;;;;12.52;8.60;;;17.90;99.90;;;;;;5052093;28;20119;-71
2021/07/09 05:45:19;;;;;;;10.02;7.00;;;17.90;99.90;;;;;;5050679;28;20062;-68
2021/07/09 05:47:47;;;;;;;10.88;8.65;;;17.90;99.90;;;;;;5050799;28;20095;-71
2021/07/09 05:50:14;;;;;;;12.77;8.10;;;17.80;99.90;;;;;;5046393;28;20095;-72
2021/07/09 05:52:42;;;;;;;8.85;7.45;;;17.90;99.90;;;;;;5040173;28;20045;-71
2021/07/09 05:55:10;;;;;;;11.63;7.95;;;17.90;99.90;;;;;;5044216;28;20053;-71
2021/07/09 05:57:37;;;;;;;10.95;7.90;;;18.00;99.90;;;;;;5033239;28;20080;-71
2021/07/09 06:00:06;;;;;;;13.93;11.07;;;18.00;99.90;;;;;;5045641;28;20131;-71
2021/07/09 06:02:34;;;;;;;11.48;9.70;;;18.10;99.90;;;;;;5049408;28;20037;-71
2021/07/09 06:05:03;;;;;;;11.68;9.82;;;18.10;99.90;;;;;;5048394;28;20044;-71
2021/07/09 06:07:32;;;;;;;14.57;11.07;;;18.10;99.90;;;;;;5043777;28;20048;-71
2021/07/09 06:10:05;;;;;;;18.25;14.48;;;18.10;99.90;;;;;;5035613;28;20051;-71
2021/07/09 06:12:33;;;;;;;15.38;11.40;;;18.10;99.90;;;;;;5043576;28;20041;-71
2021/07/09 06:15:00;;;;;;;12.63;10.45;;;18.10;99.90;;;;;;5026585;28;20041;-68
2021/07/09 06:17:28;;;;;;;10.13;7.82;;;18.00;99.90;;;;;;5026899;28;20045;-70
2021/07/09 06:19:57;;;;;;;8.77;7.13;;;18.00;99.90;;;;;;5053696;28;20128;-70
2021/07/09 06:22:24;;;;;;;9.93;7.90;;;18.00;99.90;;;;;;5044307;28;20045;-69
2021/07/09 06:24:51;;;;;;;7.93;6.50;;;18.10;99.90;;;;;;5044864;28;20051;-70
2021/07/09 06:27:20;;;;;;;8.88;7.53;;;18.10;99.90;;;;;;5046319;28;20037;-70
2021/07/09 06:29:48;;;;;;;11.05;8.43;;;18.10;99.90;;;;;;5041771;28;20053;-70
2021/07/09 06:32:15;;;;;;;10.32;7.70;;;18.10;99.90;;;;;;5043722;28;20451;-69
2021/07/09 06:34:42;;;;;;;12.57;7.57;;;18.10;99.90;;;;;;5041786;28;20551;-69
2021/07/09 06:37:10;;;;;;;8.32;6.80;;;18.00;99.90;;;;;;5040352;28;20584;-69
2021/07/09 06:39:38;;;;;;;10.80;7.85;;;18.00;99.90;;;;;;5046141;28;20061;-68
2021/07/09 06:42:05;;;;;;;10.30;6.78;;;18.00;99.90;;;;;;5034940;28;20057;-68
2021/07/09 06:44:34;;;;;;;8.85;6.72;;;18.00;99.90;;;;;;5044587;28;20033;-68
2021/07/09 06:47:03;;;;;;;8.07;7.25;;;17.70;99.90;;;;;;5039664;28;20443;-67
2021/07/09 06:49:30;;;;;;;8.15;6.57;;;17.40;99.90;;;;;;5035153;28;20045;-67
2021/07/09 06:51:58;;;;;;;9.60;7.00;;;17.00;99.90;;;;;;5038432;28;20069;-68
2021/07/09 06:54:25;;;;;;;6.22;4.75;;;16.80;99.90;;;;;;5032391;28;20558;-68
2021/07/09 06:56:53;;;;;;;5.88;4.43;;;16.50;99.90;;;;;;5033461;28;20041;-66
2021/07/09 06:59:20;;;;;;;5.43;4.22;;;16.30;99.90;;;;;;5033421;28;20124;-68
2021/07/09 07:01:49;;;;;;;5.57;3.97;;;16.00;99.90;;;;;;5037869;28;20047;-67
2021/07/09 07:04:17;;;;;;;8.75;4.95;;;15.80;99.90;;;;;;5033863;28;20049;-67
2021/07/09 07:06:44;;;;;;;6.28;4.40;;;15.80;99.90;;;;;;5038827;28;20128;-68
2021/07/09 07:09:12;;;;;;;6.15;3.97;;;15.70;99.90;;;;;;5035214;28;20473;-67
2021/07/09 07:11:39;;;;;;;6.32;4.32;;;15.60;99.90;;;;;;5047722;28;20633;-67
2021/07/09 07:14:06;;;;;;;6.82;4.75;;;15.50;99.90;;;;;;5049463;28;20111;-68
2021/07/09 07:16:33;;;;;;;8.85;4.70;;;15.40;99.90;;;;;;5051892;28;20577;-67
2021/07/09 07:19:01;;;;;;;5.90;4.38;;;15.50;99.90;;;;;;5049507;28;20040;-68
2021/07/09 07:21:29;;;;;;;7.53;3.95;;;15.60;99.90;;;;;;5047422;28;20123;-67
2021/07/09 07:23:56;;;;;;;5.63;3.95;;;15.70;99.90;;;;;;5004685;28;20100;-67
2021/07/09 07:26:28;;;;;;;;;;;15.70;99.90;;;;;;5049951;28;20132;-67
2021/07/09 07:28:55;;;;;;;6.22;3.10;;;15.70;99.90;;;;;;5049843;28;20345;-67
2021/07/09 07:31:23;;;;;;;7.22;3.13;;;15.70;99.90;;;;;;5052447;28;20052;-67
2021/07/09 07:33:50;;;;;;;4.78;3.05;;;15.70;99.90;;;;;;5051291;28;20049;-68
2021/07/09 07:36:18;;;;;;;4.22;2.40;;;15.70;99.90;;;;;;5047092;28;20128;-67
2021/07/09 07:38:46;;;;;;;4.20;2.67;;;15.70;99.90;;;;;;5041728;28;20040;-68
2021/07/09 07:41:15;;;;;;;4.47;2.60;;;15.70;99.90;;;;;;5015861;28;20057;-67
2021/07/09 07:43:43;;;;;;;5.53;2.83;;;15.50;99.90;;;;;;5032207;28;20053;-67
2021/07/09 07:46:12;;;;;;;3.72;2.05;;;15.50;99.90;;;;;;5042159;28;20115;-67
2021/07/09 07:48:40;;;;;;;4.32;2.40;;;15.40;99.90;;;;;;5037937;28;20049;-67
2021/07/09 07:51:08;;;;;;;4.55;2.40;;;15.30;99.90;;;;;;5033155;28;20519;-68
2021/07/09 07:53:36;;;;;;;4.13;2.28;;;15.30;99.90;;;;;;5043455;28;20075;-68
2021/07/09 07:56:06;;;;;;;4.35;2.17;;;15.20;99.90;;;;;;5034037;28;20091;-68
2021/07/09 07:58:34;;;;;;;3.33;2.10;;;15.20;99.90;;;;;;5027915;28;20071;-67
2021/07/09 08:01:02;;;;;;;2.97;1.88;;;15.10;99.90;;;;;;5037513;28;20041;-67
2021/07/09 08:03:30;;;;;;;4.80;2.30;;;15.10;99.90;;;;;;5035544;28;20072;-67
2021/07/09 08:05:57;;;;;;;4.60;2.20;;;15.20;99.90;;;;;;5040733;28;20049;-67
2021/07/09 08:08:25;;;;;;;4.13;2.47;;;15.20;99.90;;;;;;5030296;28;20050;-68
2021/07/09 08:10:52;;;;;;;4.05;2.53;;;15.20;99.90;;;;;;5031481;28;20087;-68
2021/07/09 08:13:19;;;;;;;3.35;2.10;;;15.20;99.90;;;;;;5042782;28;20489;-67
2021/07/09 08:15:47;;;;;;;4.50;2.70;;;15.30;99.90;;;;;;5050003;28;20036;-69
2021/07/09 08:18:18;;;;;;;3.50;2.30;;;15.30;99.90;;;;;;5044220;28;20052;-67
2021/07/09 08:20:45;;;;;;;6.00;2.58;;;15.30;99.90;;;;;;5051147;28;20047;-67
2021/07/09 08:23:12;;;;;;;3.83;2.60;;;15.30;99.90;;;;;;5028920;28;20615;-68
2021/07/09 08:25:39;;;;;;;3.80;2.42;;;15.30;99.90;;;;;;5036761;28;20091;-67
2021/07/09 08:28:07;;;;;;;4.15;2.95;;;15.30;99.90;;;;;;5040075;28;20071;-67
2021/07/09 08:30:34;;;;;;;5.70;3.75;;;15.20;99.90;;;;;;5041211;28;20045;-67
2021/07/09 08:33:01;;;;;;;5.18;3.45;;;15.10;99.90;;;;;;5042204;28;20415;-67
2021/07/09 08:35:29;;;;;;;5.88;3.85;;;15.00;99.90;;;;;;5037875;28;20041;-69
2021/07/09 08:37:56;;;;;;;7.25;3.85;;;15.00;99.90;;;;;;5044193;28;20041;-66
2021/07/09 08:40:23;;;;;;;6.32;4.40;;;15.00;99.90;;;;;;5047713;28;20070;-67
2021/07/09 08:42:50;;;;;;;7.45;4.53;;;15.00;99.90;;;;;;5049634;28;20041;-67
2021/07/09 08:45:18;;;;;;;6.03;4.60;;;15.00;99.90;;;;;;5046366;28;20049;-67
2021/07/09 08:47:47;;;;;;;5.75;4.30;;;15.00;99.90;;;;;;5046522;28;20072;-67
2021/07/09 08:50:14;;;;;;;6.15;4.10;;;15.00;99.90;;;;;;5037119;28;20056;-67
2021/07/09 08:52:43;;;;;;;5.75;4.07;;;15.00;99.90;;;;;;5047837;28;20385;-67
2021/07/09 08:55:12;;;;;;;7.38;5.50;;;14.90;99.90;;;;;;5034006;28;20047;-67
2021/07/09 08:57:44;;;;;;;8.15;5.38;;;15.00;99.90;;;;;;5049975;28;20565;-68
2021/07/09 09:00:21;;;;;;;;;;;15.00;99.90;;;;;;5042967;28;20048;-67
2021/07/09 09:02:49;;;;;;;9.07;5.35;;;15.10;99.90;;;;;;5039861;28;20430;-68
2021/07/09 09:05:24;;;;;;;7.05;5.15;;;15.20;99.90;;;;;;5047520;28;20132;-67
2021/07/09 09:07:57;;;;;;;6.47;4.93;;;15.20;99.90;;;;;;5034248;28;20132;-68
2021/07/09 09:10:53;;;;;;;6.05;4.63;;;15.30;99.90;;;;;;5025688;28;20041;-69
2021/07/09 09:13:21;;;;;;;7.00;4.30;;;15.30;99.90;;;;;;5026147;28;20380;-69
2021/07/09 09:16:11;;;;;;;8.88;5.97;;;15.40;99.90;;;;;;5041117;28;20037;-66
2021/07/09 09:18:55;;;;;;;6.18;4.60;;;15.40;99.90;;;;;;5045898;28;20037;-68
2021/07/09 09:21:24;;;;;;;6.78;3.88;;;15.50;99.90;;;;;;5029674;28;20626;-65
2021/07/09 09:23:53;;;;;;;5.72;3.85;;;15.60;99.90;;;;;;5049250;28;20095;-67
2021/07/09 09:26:43;;;;;;;5.63;3.50;;;15.70;99.90;;;;;;5036651;28;20415;-67
2021/07/09 09:29:31;;;;;;;4.68;3.05;;;15.80;99.90;;;;;;5048520;28;20136;-66
2021/07/09 09:32:02;;;;;;;4.57;2.67;;;15.90;99.90;;;;;;5048641;28;20132;-67
2021/07/09 09:34:36;;;;;;;;;;;16.00;99.90;;;;;;5030638;28;20068;-69
2021/07/09 09:37:06;;;;;;;5.43;2.72;;;16.00;99.90;;;;;;5040212;28;20069;-67
2021/07/09 09:39:34;;;;;;;3.70;2.63;;;16.10;99.90;;;;;;5044697;28;20516;-67
2021/07/09 09:42:18;;;;;;;4.72;2.70;;;16.10;99.90;;;;;;5048044;28;20411;-68
2021/07/09 09:45:03;;;;;;;4.28;2.55;;;16.20;99.90;;;;;;5045856;28;20060;-69
2021/07/09 09:47:33;;;;;;;4.15;2.58;;;16.20;99.90;;;;;;5045186;28;20123;-68
2021/07/09 09:50:04;;;;;;;4.03;2.17;;;16.20;99.90;;;;;;5052468;28;20451;-69
2021/07/09 09:52:39;;;;;;;3.95;2.25;;;16.30;99.90;;;;;;5054021;28;20464;-68
2021/07/09 09:55:21;;;;;;;6.32;2.47;;;16.40;99.90;;;;;;5047335;28;20104;-70
2021/07/09 09:58:19;;;;;;;3.72;2.25;;;16.50;99.90;;;;;;5044962;28;20073;-68
2021/07/09 10:00:48;;;;;;;4.35;2.80;;;16.60;99.90;;;;;;5051979;28;20061;-68
2021/07/09 10:03:19;;;;;;;4.90;3.17;;;16.60;99.90;;;;;;5049957;28;20399;-70
2021/07/09 10:05:49;;;;;;;6.30;2.78;;;16.50;99.90;;;;;;5047690;28;20225;-68
2021/07/09 10:08:19;;;;;;;5.07;2.45;;;16.60;99.90;;;;;;5049280;28;20095;-68
2021/07/09 10:10:48;;;;;;;3.30;2.25;;;16.60;99.90;;;;;;5040518;28;20061;-69
2021/07/09 10:13:17;;;;;;;4.40;2.53;;;16.60;99.90;;;;;;5051758;28;20044;-68
2021/07/09 10:15:50;;;;;;;3.13;2.10;;;16.60;99.90;;;;;;5053783;28;20037;-69
2021/07/09 10:18:19;;;;;;;5.22;2.40;;;16.60;99.90;;;;;;5031604;28;20132;-70
2021/07/09 10:20:48;;;;;;;3.78;2.45;;;16.60;99.90;;;;;;5050832;28;20060;-68
2021/07/09 10:23:19;;;;;;;3.35;2.10;;;16.50;99.90;;;;;;5050769;28;20148;-67
2021/07/09 10:25:51;;;;;;;3.72;2.50;;;16.50;99.90;;;;;;5052398;28;20060;-69
2021/07/09 10:28:22;;;;;;;;;;;16.50;99.90;;;;;;5049838;28;22135;-70
2021/07/09 10:30:54;;;;;;;3.13;2.10;;;16.70;99.90;;;;;;5029620;28;19921;-68
2021/07/09 10:33:35;;;;;;;3.75;2.30;;;16.70;99.90;;;;;;5048422;28;20114;-69
2021/07/09 10:36:26;;;;;;;3.70;2.40;;;16.80;99.90;;;;;;5048395;28;20036;-69
2021/07/09 10:38:54;;;;;;;3.80;2.10;;;17.00;99.90;;;;;;5050319;28;20040;-68
2021/07/09 10:41:23;;;;;;;3.05;1.92;;;17.10;99.90;;;;;;5051233;28;20543;-68
2021/07/09 10:44:23;;;;;;;4.78;2.20;;;17.10;99.90;;;;;;5050642;28;20102;-70
2021/07/09 10:46:52;;;;;;;4.18;2.10;;;17.20;99.90;;;;;;5020804;28;20063;-69
2021/07/09 10:49:47;;;;;;;4.20;2.03;;;17.30;99.90;;;;;;5051983;28;20476;-66
2021/07/09 10:52:52;;;;;;;3.08;1.83;;;17.40;99.90;;;;;;5031730;28;20060;-70
2021/07/09 10:55:28;;;;;;;4.95;2.33;;;17.40;99.90;;;;;;5031673;28;20053;-70
2021/07/09 10:58:06;;;;;;;5.07;2.13;;;17.50;99.90;;;;;;5030549;28;20493;-70
2021/07/09 11:00:55;;;;;;;2.60;1.60;;;17.70;99.90;;;;;;5018047;28;20046;-70
2021/07/09 11:03:40;;;;;;;2.90;1.60;;;17.80;99.90;;;;;;5031582;28;20069;-69
2021/07/09 11:06:13;;;;;;;3.58;2.10;;;18.00;99.90;;;;;;5046735;28;20514;-69
2021/07/09 11:08:51;;;;;;;2.97;1.70;;;17.90;99.90;;;;;;5050736;28;20114;-69
2021/07/09 11:11:42;;;;;;;5.85;1.83;;;17.90;99.90;;;;;;5052062;28;20060;-69
2021/07/09 11:14:39;;;;;;;2.35;1.58;;;17.90;99.90;;;;;;5037675;28;20057;-67
2021/07/09 11:17:21;;;;;;;4.10;2.30;;;17.90;99.90;;;;;;5047938;28;20049;-70
2021/07/09 11:20:13;;;;;;;3.45;1.60;;;18.00;99.90;;;;;;5044651;28;20049;-69
2021/07/09 11:22:46;;;;;;;4.72;2.60;;;18.10;99.90;;;;;;5046424;28;20048;-70
2021/07/09 11:25:21;;;;;;;2.88;1.58;;;18.10;99.90;;;;;;5035118;28;20055;-69
2021/07/09 11:27:54;;;;;;;3.67;1.60;;;18.10;99.90;;;;;;5040383;28;20037;-69
2021/07/09 11:30:27;;;;;;;2.20;1.40;;;18.20;99.90;;;;;;5051808;28;20484;-68
2021/07/09 11:32:55;;;;;;;5.90;1.30;;;18.30;99.90;;;;;;5036015;28;20049;-69
2021/07/09 11:35:25;;;;;;;4.22;1.90;;;18.40;99.90;;;;;;5035839;28;20042;-69
2021/07/09 11:37:52;;;;;;;3.58;1.70;;;18.50;99.90;;;;;;5032675;28;20045;-68
2021/07/09 11:40:21;;;;;;;3.72;1.65;;;18.70;99.90;;;;;;5035573;28;20128;-68
2021/07/09 11:42:48;;;;;;;5.38;1.50;;;18.70;99.90;;;;;;5050665;28;20060;-69
2021/07/09 11:45:20;;;;;;;3.00;1.48;;;19.00;99.90;;;;;;5026353;28;20421;-69
2021/07/09 11:47:49;;;;;;;4.43;1.30;;;19.00;99.90;;;;;;5063023;28;20045;-69
2021/07/09 11:50:21;;;;;;;2.85;1.40;;;18.60;99.90;;;;;;5031962;28;20053;-68
2021/07/09 11:52:53;;;;;;;2.50;1.20;;;18.50;99.90;;;;;;5031449;28;20037;-67
2021/07/09 11:55:28;;;;;;;1.80;1.20;;;18.40;99.90;;;;;;5032801;28;20048;-69
2021/07/09 11:58:01;;;;;;;2.83;1.40;;;18.30;99.90;;;;;;5031622;28;20038;-69
2021/07/09 12:00:29;;;;;;;3.13;1.40;;;18.20;99.90;;;;;;5032525;28;20037;-70
2021/07/09 12:02:56;;;;;;;2.42;1.27;;;18.30;99.90;;;;;;5030299;28;20043;-69
2021/07/09 12:05:24;;;;;;;4.88;1.10;;;18.30;99.90;;;;;;5039232;28;20090;-67
2021/07/09 12:07:57;;;;;;;2.05;1.02;;;18.40;99.90;;;;;;5039184;28;20049;-69
2021/07/09 12:10:28;;;;;;;1.42;1.00;;;18.20;99.90;;;;;;5039115;28;20040;-66
2021/07/09 12:13:03;;;;;;;2.30;1.00;;;18.10;99.90;;;;;;5046758;28;20060;-67
2021/07/09 12:15:39;;;;;;;1.50;0.90;;;17.90;99.90;;;;;;5049859;28;20115;-67
2021/07/09 12:18:14;;;;;;;1.88;1.15;;;17.90;99.90;;;;;;5044005;28;20052;-67
2021/07/09 12:20:44;;;;;;;1.98;1.20;;;18.10;99.90;;;;;;5049716;28;20479;-70
2021/07/09 12:23:13;;;;;;;2.55;1.30;;;18.10;99.90;;;;;;5050103;28;20047;-68
2021/07/09 12:25:53;;;;;;;2.20;1.20;;;18.30;99.90;;;;;;5037067;28;20037;-68
2021/07/09 12:28:22;;;;;;;1.77;0.98;;;18.50;99.90;;;;;;5031791;28;20500;-69
2021/07/09 12:30:52;;;;;;;3.08;1.40;;;18.80;99.90;;;;;;5044313;28;20041;-68
2021/07/09 12:33:30;;;;;;;3.63;2.13;;;18.80;99.90;;;;;;5031340;28;20103;-68
2021/07/09 12:36:07;;;;;;;2.08;1.13;;;18.90;99.90;;;;;;5030561;28;20121;-69
2021/07/09 12:38:38;;;;;;;2.28;1.23;;;18.80;99.90;;;;;;5041477;28;20040;-68
2021/07/09 12:41:13;;;;;;;2.63;1.30;;;18.80;99.90;;;;;;5035524;28;20064;-68
2021/07/09 12:43:47;;;;;;;2.33;1.45;;;18.60;99.90;;;;;;5044233;28;20037;-69
2021/07/09 12:46:26;;;;;;;3.17;1.70;;;18.50;99.90;;;;;;5029923;28;20049;-70
2021/07/09 12:48:57;;;;;;;2.88;1.58;;;18.30;99.90;;;;;;5018982;28;20500;-70
2021/07/09 12:51:39;;;;;;;1.80;1.38;;;18.40;99.90;;;;;;5033036;28;20079;-69
2021/07/09 12:54:12;;;;;;;3.55;2.20;;;18.40;99.90;;;;;;5035159;28;20042;-69
2021/07/09 12:56:59;;;;;;;4.55;1.95;;;18.40;99.90;;;;;;5031091;28;20095;-70
2021/07/09 12:59:27;;;;;;;5.38;2.90;;;18.30;99.90;;;;;;5040282;28;20053;-68
2021/07/09 13:01:57;;;;;;;3.90;2.75;;;18.20;99.90;;;;;;5027035;28;20065;-70